Time;durP1;ratioP1;P1;durP2;ratioP2;P2;SDS_P1;SDS_P2;PMS_P1;PMS_P2;Temp;Humidity;BMP_temperature;BMP_pressure;BME280_temperature;BME280_humidity;BME280_pressure;Samples;Min_cycle;Max_cycle;Signal;HPM_P1;HPM_P2
2023/12/08 00:00:33;;;;;;;87.23;40.63;;;0.30;95.10;;;;;;4981378;28;20177;-94
2023/12/08 00:02:59;;;;;;;81.53;45.73;;;0.30;95.10;;;;;;4981896;28;20298;-93
2023/12/08 00:05:24;;;;;;;95.70;49.67;;;0.40;95.10;;;;;;4982285;28;20269;-94
2023/12/08 00:07:50;;;;;;;86.10;42.07;;;0.30;95.10;;;;;;4982146;28;20216;-95
2023/12/08 00:10:16;;;;;;;85.33;41.43;;;0.30;95.10;;;;;;4981335;28;20177;-94
2023/12/08 00:12:42;;;;;;;87.30;45.87;;;0.30;95.10;;;;;;4981991;28;20200;-93
2023/12/08 00:15:09;;;;;;;89.50;49.70;;;0.30;95.10;;;;;;4975227;28;20225;-93
2023/12/08 00:17:34;;;;;;;79.57;45.70;;;0.30;95.10;;;;;;4972905;28;20201;-93
2023/12/08 00:20:00;;;;;;;86.70;49.00;;;0.30;95.10;;;;;;4976156;28;20202;-93
2023/12/08 00:22:27;;;;;;;82.03;39.50;;;0.30;95.10;;;;;;4976055;28;20182;-93
2023/12/08 00:35:16;;;;;;;74.70;38.63;;;0.20;95.20;;;;;;5196024;23;20239;-92
2023/12/08 00:37:42;;;;;;;76.77;38.80;;;0.20;95.10;;;;;;5116799;23;20247;-95
2023/12/08 00:40:08;;;;;;;76.80;45.67;;;0.20;95.10;;;;;;4982302;28;20229;-93
2023/12/08 00:42:34;;;;;;;82.17;48.00;;;0.10;95.10;;;;;;4980577;28;20194;-92
2023/12/08 00:45:00;;;;;;;81.97;47.07;;;0.10;95.10;;;;;;5001228;28;20197;-92
2023/12/08 00:47:25;;;;;;;74.60;37.30;;;0.20;95.20;;;;;;5001257;28;20283;-94
2023/12/08 00:49:54;;;;;;;73.33;37.67;;;0.20;95.10;;;;;;5001778;28;20242;-94
2023/12/08 00:52:20;;;;;;;73.53;42.63;;;0.20;95.10;;;;;;5017471;28;20244;-94
2023/12/08 00:54:46;;;;;;;73.30;44.97;;;0.20;95.10;;;;;;5002031;28;20171;-95
2023/12/08 00:57:11;;;;;;;71.47;44.37;;;0.20;95.10;;;;;;5001886;28;20165;-93
2023/12/08 00:59:37;;;;;;;70.00;36.60;;;0.10;95.10;;;;;;5001471;28;20268;-92
2023/12/08 01:02:02;;;;;;;63.47;35.83;;;0.10;95.10;;;;;;4996212;28;20201;-91
2023/12/08 01:04:31;;;;;;;74.53;45.57;;;0.10;95.10;;;;;;5000245;28;20200;-93
2023/12/08 01:14:37;;;;;;;64.27;37.00;;;0.20;95.00;;;;;;4996474;28;20677;-88
2023/12/08 01:17:03;;;;;;;72.53;43.80;;;0.20;95.00;;;;;;4983353;28;20191;-91
2023/12/08 01:19:28;;;;;;;68.20;42.63;;;0.20;95.00;;;;;;4982298;28;20215;-90
2023/12/08 01:21:54;;;;;;;70.57;42.03;;;0.20;94.90;;;;;;5265767;23;20310;-93
2023/12/08 01:24:20;;;;;;;71.63;37.50;;;0.20;94.90;;;;;;4985421;28;20215;-95
2023/12/08 01:26:47;;;;;;;63.77;34.83;;;0.20;94.80;;;;;;4985893;28;20176;-96
2023/12/08 01:29:12;;;;;;;66.17;41.80;;;0.20;94.80;;;;;;4985838;28;20191;-95
2023/12/08 01:31:38;;;;;;;70.80;43.63;;;0.10;94.80;;;;;;5004902;28;20190;-96
2023/12/08 01:34:04;;;;;;;74.57;43.87;;;0.00;94.80;;;;;;5004994;28;20171;-95
2023/12/08 01:36:29;;;;;;;62.27;32.90;;;0.00;94.80;;;;;;5005160;28;20166;-95
2023/12/08 01:38:55;;;;;;;67.87;34.17;;;0.10;94.90;;;;;;5004923;28;20206;-95
2023/12/08 01:41:21;;;;;;;68.70;40.97;;;0.10;94.90;;;;;;5005028;28;20176;-96
2023/12/08 01:43:47;;;;;;;70.90;43.80;;;0.10;94.80;;;;;;5004950;28;20184;-95
2023/12/08 01:46:15;;;;;;;61.93;40.40;;;0.10;94.80;;;;;;5004945;28;20236;-95
2023/12/08 01:48:42;;;;;;;55.20;30.90;;;0.10;94.90;;;;;;5004910;28;20288;-94
2023/12/08 01:51:12;;;;;;;65.33;33.77;;;0.10;94.80;;;;;;5004839;28;20178;-95
2023/12/08 01:53:39;;;;;;;70.70;35.53;;;0.10;94.80;;;;;;5004657;28;20168;-94
2023/12/08 01:56:07;;;;;;;62.13;32.27;;;0.10;94.80;;;;;;5004523;28;20151;-96
2023/12/08 01:58:32;;;;;;;63.53;32.20;;;0.10;94.80;;;;;;5004682;28;20192;-96
2023/12/08 02:00:59;;;;;;;64.13;32.43;;;0.10;94.80;;;;;;5004454;28;20180;-95
2023/12/08 02:03:26;;;;;;;60.87;33.50;;;0.10;94.80;;;;;;5004408;28;20212;-95
2023/12/08 02:05:52;;;;;;;68.50;35.83;;;0.10;94.80;;;;;;5004472;28;20169;-95
2023/12/08 02:08:18;;;;;;;64.93;34.17;;;0.10;94.80;;;;;;5004502;28;20185;-95
2023/12/08 02:10:44;;;;;;;67.57;38.10;;;0.10;94.80;;;;;;5004591;28;20197;-95
2023/12/08 02:13:11;;;;;;;62.43;38.97;;;0.00;94.80;;;;;;5004483;28;20161;-95
2023/12/08 02:15:38;;;;;;;54.73;35.10;;;0.00;94.70;;;;;;5004277;28;20159;-95
2023/12/08 02:18:05;;;;;;;59.03;36.83;;;0.10;94.70;;;;;;5004220;28;20154;-95
2023/12/08 02:20:31;;;;;;;65.67;41.20;;;0.00;94.70;;;;;;5004206;28;20158;-95
2023/12/08 02:22:57;;;;;;;58.33;37.57;;;0.00;94.60;;;;;;5004222;28;20190;-95
2023/12/08 02:25:23;;;;;;;66.73;41.50;;;0.00;94.60;;;;;;5004249;28;20168;-96
2023/12/08 02:27:48;;;;;;;64.43;40.07;;;0.00;94.50;;;;;;5002947;28;20161;-95
2023/12/08 02:30:16;;;;;;;66.97;42.00;;;0.00;94.50;;;;;;5004162;28;20184;-94
2023/12/08 02:33:05;;;;;;;53.23;30.90;;;0.00;94.40;;;;;;5004185;28;20150;-95
2023/12/08 02:35:35;;;;;;;56.53;31.30;;;0.00;94.30;;;;;;5003244;28;20192;-95
2023/12/08 02:38:01;;;;;;;60.07;39.67;;;0.00;94.30;;;;;;5004020;28;20158;-95
2023/12/08 02:40:27;;;;;;;58.33;39.50;;;-0.10;94.20;;;;;;5004031;28;20159;-94
2023/12/08 02:42:54;;;;;;;62.57;42.93;;;0.00;94.20;;;;;;5003825;28;20182;-95
2023/12/08 02:45:20;;;;;;;50.80;29.93;;;0.00;94.10;;;;;;5003782;28;20164;-95
2023/12/08 02:47:46;;;;;;;51.37;29.60;;;0.00;94.10;;;;;;5003828;28;20180;-95
2023/12/08 02:50:11;;;;;;;57.80;39.73;;;0.00;94.00;;;;;;5003724;28;20223;-95
2023/12/08 02:52:37;;;;;;;53.63;37.50;;;0.00;94.00;;;;;;5003730;28;20212;-96
2023/12/08 02:55:03;;;;;;;52.70;39.73;;;0.00;94.00;;;;;;5003750;28;20179;-96
2023/12/08 02:57:28;;;;;;;56.30;36.97;;;-0.10;93.90;;;;;;5003595;28;20167;-95
2023/12/08 02:59:54;;;;;;;56.17;31.97;;;-0.10;93.80;;;;;;5003498;28;20191;-95
2023/12/08 03:02:19;;;;;;;54.40;31.97;;;-0.10;93.80;;;;;;5003596;28;20211;-95
2023/12/08 03:04:45;;;;;;;59.73;39.33;;;-0.10;93.80;;;;;;5003322;28;20210;-95
2023/12/08 03:07:12;;;;;;;59.70;40.43;;;-0.10;93.80;;;;;;5003349;28;20198;-96
2023/12/08 03:09:37;;;;;;;58.60;40.90;;;-0.10;93.70;;;;;;5003247;28;20289;-95
2023/12/08 03:12:03;;;;;;;50.20;31.60;;;-0.10;93.70;;;;;;5003235;28;20184;-95
2023/12/08 03:14:29;;;;;;;49.67;30.80;;;-0.20;93.60;;;;;;5003307;28;20183;-96
2023/12/08 03:16:55;;;;;;;54.37;38.37;;;-0.20;93.60;;;;;;5003201;28;20184;-95
2023/12/08 03:19:20;;;;;;;56.77;39.63;;;-0.20;93.60;;;;;;5003187;28;20187;-95
2023/12/08 03:21:46;;;;;;;59.97;40.90;;;-0.20;93.50;;;;;;5003179;28;20188;-95
2023/12/08 03:24:12;;;;;;;61.90;41.57;;;-0.20;93.50;;;;;;5002858;28;20237;-96
2023/12/08 03:26:38;;;;;;;51.53;30.53;;;-0.20;93.50;;;;;;5015971;23;20299;-95
2023/12/08 03:29:04;;;;;;;49.00;29.50;;;-0.20;93.50;;;;;;5004277;28;20149;-96
2023/12/08 03:31:31;;;;;;;55.37;39.77;;;-0.20;93.30;;;;;;5004352;28;20165;-95
2023/12/08 03:33:57;;;;;;;54.80;39.50;;;-0.20;93.30;;;;;;5004279;28;20160;-95
2023/12/08 03:36:23;;;;;;;53.67;39.90;;;-0.20;93.30;;;;;;5003854;28;20164;-95
2023/12/08 03:38:49;;;;;;;49.10;30.80;;;-0.10;93.30;;;;;;5002469;28;20180;-95
2023/12/08 03:41:14;;;;;;;52.67;32.23;;;-0.10;93.20;;;;;;5002821;28;20172;-96
2023/12/08 03:43:40;;;;;;;54.23;40.53;;;-0.10;93.20;;;;;;5002682;28;20193;-96
2023/12/08 03:46:07;;;;;;;51.23;39.47;;;-0.10;93.10;;;;;;5002736;28;20188;-95
2023/12/08 03:48:34;;;;;;;50.70;40.50;;;-0.10;93.10;;;;;;5002501;28;20178;-95
2023/12/08 03:51:00;;;;;;;52.53;40.57;;;-0.10;93.00;;;;;;5002763;28;20161;-96
2023/12/08 03:53:26;;;;;;;48.27;30.27;;;0.00;93.00;;;;;;5002624;28;20183;-96
2023/12/08 03:55:51;;;;;;;48.70;29.93;;;0.00;93.00;;;;;;5002573;28;20449;-96
2023/12/08 03:58:17;;;;;;;51.53;40.03;;;0.00;92.90;;;;;;5002645;28;20251;-95
2023/12/08 04:00:43;;;;;;;51.10;41.90;;;0.00;92.80;;;;;;5002413;28;20208;-96
2023/12/08 04:03:08;;;;;;;51.00;41.00;;;0.00;92.60;;;;;;5002425;28;20193;-96
2023/12/08 04:05:34;;;;;;;47.67;31.33;;;0.00;92.60;;;;;;5002367;28;20176;-96
2023/12/08 04:08:04;;;;;;;43.67;30.17;;;0.10;92.50;;;;;;5002423;28;20179;-95
2023/12/08 04:10:30;;;;;;;49.93;40.63;;;0.10;92.40;;;;;;5002478;28;20160;-95
2023/12/08 04:12:56;;;;;;;43.63;37.80;;;0.10;92.40;;;;;;5002358;28;20161;-96
2023/12/08 04:15:21;;;;;;;51.40;41.70;;;0.10;92.20;;;;;;5002390;28;20156;-96
2023/12/08 04:17:47;;;;;;;43.13;29.53;;;0.10;92.10;;;;;;5002181;28;20231;-95
2023/12/08 04:20:13;;;;;;;38.80;28.67;;;0.10;92.10;;;;;;5002225;28;20204;-95
2023/12/08 04:22:39;;;;;;;39.27;28.90;;;0.10;92.00;;;;;;5002142;28;20165;-95
2023/12/08 04:25:06;;;;;;;44.03;39.23;;;0.20;92.00;;;;;;5002314;28;20241;-95
2023/12/08 04:27:32;;;;;;;47.67;42.37;;;0.20;91.80;;;;;;5001958;28;20210;-96
2023/12/08 04:30:00;;;;;;;39.70;27.43;;;0.30;91.70;;;;;;5001963;28;20221;-96
2023/12/08 04:32:26;;;;;;;37.83;28.93;;;0.30;91.60;;;;;;5002088;28;20163;-94
2023/12/08 04:34:51;;;;;;;37.03;27.47;;;0.30;91.50;;;;;;5002185;28;20225;-94
2023/12/08 04:37:17;;;;;;;44.90;40.00;;;0.30;91.30;;;;;;5002155;28;20172;-95
2023/12/08 04:39:44;;;;;;;42.47;37.77;;;0.30;91.20;;;;;;5002111;28;20218;-95
2023/12/08 04:42:10;;;;;;;40.53;30.23;;;0.30;91.00;;;;;;5002193;28;20231;-95
2023/12/08 04:44:35;;;;;;;33.00;25.90;;;0.30;90.90;;;;;;5001994;28;20205;-94
2023/12/08 04:47:01;;;;;;;38.27;29.00;;;0.30;90.80;;;;;;5001962;28;20199;-92
2023/12/08 04:49:28;;;;;;;42.53;38.10;;;0.30;90.70;;;;;;5001848;28;20204;-95
2023/12/08 04:51:54;;;;;;;43.70;39.30;;;0.30;90.50;;;;;;5004366;28;20184;-94
2023/12/08 04:54:19;;;;;;;39.87;34.73;;;0.30;90.40;;;;;;5005842;28;20283;-94
2023/12/08 04:56:45;;;;;;;32.90;25.50;;;0.40;90.20;;;;;;5005752;28;20181;-94
2023/12/08 04:59:10;;;;;;;30.20;23.40;;;0.40;90.10;;;;;;5005644;28;20195;-94
2023/12/08 05:01:36;;;;;;;33.83;25.17;;;0.40;89.80;;;;;;5005644;28;20191;-94
2023/12/08 05:04:05;;;;;;;31.50;24.97;;;0.50;89.60;;;;;;5005441;28;20200;-95
2023/12/08 05:06:31;;;;;;;27.50;22.90;;;0.50;89.40;;;;;;5005624;28;20158;-93
2023/12/08 05:08:57;;;;;;;31.67;24.67;;;0.50;89.30;;;;;;5005444;28;20196;-94
2023/12/08 05:11:22;;;;;;;29.57;24.63;;;0.60;89.00;;;;;;5005402;28;20185;-95
2023/12/08 05:13:48;;;;;;;29.23;23.53;;;0.70;88.70;;;;;;5005371;28;20175;-93
2023/12/08 05:16:15;;;;;;;28.87;23.60;;;0.70;88.40;;;;;;5005499;28;20207;-94
2023/12/08 05:18:41;;;;;;;40.40;36.40;;;0.80;88.20;;;;;;5005469;28;20260;-94
2023/12/08 05:21:07;;;;;;;39.50;35.87;;;0.80;88.10;;;;;;5004726;28;20188;-93
2023/12/08 05:23:33;;;;;;;42.40;38.20;;;0.80;88.00;;;;;;5005006;28;20222;-94
2023/12/08 05:25:58;;;;;;;43.30;39.20;;;0.80;87.60;;;;;;5005075;28;20200;-93
2023/12/08 05:28:25;;;;;;;42.93;39.07;;;0.80;87.50;;;;;;5003964;28;20208;-93
2023/12/08 05:30:52;;;;;;;46.20;41.87;;;0.90;87.20;;;;;;5005132;28;20166;-94
2023/12/08 05:33:18;;;;;;;41.83;37.93;;;0.90;87.20;;;;;;5004771;28;20198;-94
2023/12/08 05:35:44;;;;;;;47.03;42.93;;;0.90;87.00;;;;;;5004232;28;20178;-93
2023/12/08 05:38:09;;;;;;;45.67;41.70;;;0.90;87.10;;;;;;5004411;28;20208;-93
2023/12/08 05:40:35;;;;;;;41.17;37.27;;;0.90;87.10;;;;;;5004130;28;20247;-93
2023/12/08 05:43:00;;;;;;;42.30;38.47;;;0.90;87.10;;;;;;5004057;28;20209;-93
2023/12/08 05:45:26;;;;;;;41.70;37.40;;;0.90;86.80;;;;;;5004561;28;20204;-93
2023/12/08 05:47:52;;;;;;;39.60;35.90;;;0.90;86.80;;;;;;5002927;28;20188;-93
2023/12/08 05:50:17;;;;;;;39.07;35.33;;;0.90;86.70;;;;;;5003246;28;20194;-93
2023/12/08 05:52:43;;;;;;;36.77;33.37;;;1.00;86.70;;;;;;4999775;28;20200;-92
2023/12/08 05:55:08;;;;;;;27.83;24.83;;;0.90;86.70;;;;;;5003669;28;20181;-93
2023/12/08 05:57:34;;;;;;;28.40;24.00;;;0.90;87.00;;;;;;5002195;28;20197;-92
2023/12/08 05:59:59;;;;;;;46.40;42.23;;;0.90;87.00;;;;;;5003342;28;20207;-93
2023/12/08 06:02:25;;;;;;;46.83;42.43;;;0.90;87.00;;;;;;5003181;28;20182;-93
2023/12/08 06:04:50;;;;;;;28.33;25.30;;;1.00;87.10;;;;;;5002476;28;20284;-93
2023/12/08 06:07:16;;;;;;;42.80;38.83;;;0.90;87.00;;;;;;5003305;28;20181;-93
2023/12/08 06:09:41;;;;;;;44.77;40.60;;;0.90;87.20;;;;;;5001533;28;20222;-93
2023/12/08 06:12:07;;;;;;;44.20;40.20;;;0.90;87.20;;;;;;5003306;28;20172;-93
2023/12/08 06:14:33;;;;;;;29.47;25.57;;;0.90;87.10;;;;;;5002238;28;20186;-93
2023/12/08 06:16:58;;;;;;;29.03;25.30;;;1.00;87.00;;;;;;5001494;28;20193;-92
2023/12/08 06:19:24;;;;;;;49.43;44.90;;;1.00;87.00;;;;;;5002418;28;20200;-91
2023/12/08 06:21:49;;;;;;;46.40;42.37;;;0.90;87.00;;;;;;5000233;28;20188;-93
2023/12/08 06:24:16;;;;;;;48.90;44.27;;;1.00;87.00;;;;;;5000796;28;20194;-93
2023/12/08 06:26:41;;;;;;;29.20;25.53;;;1.00;86.90;;;;;;5001302;28;20217;-92
2023/12/08 06:29:08;;;;;;;31.07;25.43;;;1.00;87.00;;;;;;5001273;28;20210;-93
2023/12/08 06:31:34;;;;;;;31.13;24.27;;;0.90;87.00;;;;;;4998854;28;20161;-92
2023/12/08 06:33:59;;;;;;;43.77;39.90;;;0.90;87.30;;;;;;4997127;28;20305;-93
2023/12/08 06:36:25;;;;;;;48.97;44.67;;;0.90;87.40;;;;;;4997244;28;20188;-92
2023/12/08 06:38:51;;;;;;;42.93;38.93;;;0.90;87.50;;;;;;4996553;28;20236;-93
2023/12/08 06:41:16;;;;;;;28.27;24.73;;;0.80;87.60;;;;;;4995441;28;20177;-93
2023/12/08 06:43:42;;;;;;;29.87;25.07;;;0.80;87.70;;;;;;4995338;28;20212;-92
2023/12/08 06:46:07;;;;;;;38.53;34.63;;;0.80;87.80;;;;;;4995888;28;20182;-93
2023/12/08 06:48:33;;;;;;;42.37;37.87;;;0.80;87.90;;;;;;4993136;28;20198;-92
2023/12/08 06:50:58;;;;;;;39.37;35.37;;;0.80;87.70;;;;;;4996248;28;20178;-93
2023/12/08 06:53:24;;;;;;;29.53;23.57;;;0.80;87.80;;;;;;4996337;28;20184;-93
2023/12/08 06:55:50;;;;;;;34.43;26.13;;;0.80;87.80;;;;;;4996146;28;20180;-92
2023/12/08 06:58:15;;;;;;;43.23;37.40;;;0.80;88.00;;;;;;4997724;28;20213;-92
2023/12/08 07:00:41;;;;;;;39.23;35.40;;;0.80;88.10;;;;;;4995978;28;20243;-93
2023/12/08 07:03:06;;;;;;;39.50;35.30;;;0.80;88.20;;;;;;4998066;28;20202;-93
2023/12/08 07:05:32;;;;;;;34.80;26.00;;;0.90;88.10;;;;;;4997759;28;20191;-93
2023/12/08 07:07:57;;;;;;;33.20;26.50;;;0.90;88.00;;;;;;4997488;28;20165;-93
2023/12/08 07:10:23;;;;;;;42.00;37.83;;;0.80;88.20;;;;;;4996391;28;20189;-93
2023/12/08 07:12:49;;;;;;;44.07;39.67;;;0.80;88.20;;;;;;4997787;28;20190;-94
2023/12/08 07:15:14;;;;;;;41.03;36.23;;;0.80;88.50;;;;;;4996578;28;20185;-93
2023/12/08 07:17:40;;;;;;;33.00;27.27;;;0.80;88.40;;;;;;4997334;28;20213;-93
2023/12/08 07:20:09;;;;;;;37.37;28.43;;;0.90;88.50;;;;;;4997149;28;20221;-93
2023/12/08 07:22:35;;;;;;;38.90;33.20;;;0.80;88.60;;;;;;4997710;28;20181;-92
2023/12/08 07:25:03;;;;;;;46.33;41.27;;;0.80;88.80;;;;;;4994206;28;20228;-93
2023/12/08 07:27:28;;;;;;;44.37;39.87;;;0.80;88.80;;;;;;4994522;28;20201;-93
2023/12/08 07:29:54;;;;;;;32.50;23.40;;;0.80;88.90;;;;;;4994231;28;20193;-92
2023/12/08 07:32:19;;;;;;;36.47;25.77;;;0.80;89.10;;;;;;4992354;28;20178;-92
2023/12/08 07:34:45;;;;;;;42.20;36.73;;;0.80;89.10;;;;;;4993789;28;20185;-93
2023/12/08 07:37:10;;;;;;;40.67;33.33;;;0.80;89.20;;;;;;4993417;28;20180;-93
2023/12/08 07:39:36;;;;;;;37.40;29.03;;;0.90;89.30;;;;;;4994149;28;20229;-93
2023/12/08 07:42:02;;;;;;;41.67;29.87;;;0.90;89.30;;;;;;4995037;28;20172;-93
2023/12/08 07:44:28;;;;;;;39.77;26.90;;;0.80;89.40;;;;;;4993282;28;20201;-93
2023/12/08 07:46:53;;;;;;;38.87;29.77;;;0.80;89.60;;;;;;4993115;28;20193;-93
2023/12/08 07:49:19;;;;;;;45.10;39.60;;;0.90;89.70;;;;;;4992543;28;20209;-92
2023/12/08 07:51:45;;;;;;;46.90;40.13;;;0.90;89.80;;;;;;4992986;28;20200;-93
2023/12/08 07:54:11;;;;;;;40.20;24.93;;;0.90;89.90;;;;;;4993585;28;20229;-92
2023/12/08 07:56:36;;;;;;;36.80;27.47;;;0.90;90.00;;;;;;4993876;28;20198;-93
2023/12/08 07:59:02;;;;;;;46.00;39.33;;;0.90;90.00;;;;;;4992416;28;20224;-93
2023/12/08 08:01:27;;;;;;;51.53;42.37;;;0.90;90.00;;;;;;4993848;28;20188;-93
2023/12/08 08:03:53;;;;;;;53.67;41.87;;;0.90;90.10;;;;;;4993030;28;20203;-92
2023/12/08 08:06:19;;;;;;;40.53;27.93;;;1.00;90.10;;;;;;4992239;28;20178;-92
2023/12/08 08:08:44;;;;;;;40.20;27.57;;;1.00;90.00;;;;;;4984845;28;20197;-92
2023/12/08 08:11:10;;;;;;;42.57;28.67;;;1.00;90.00;;;;;;4980260;28;20177;-92
2023/12/08 08:13:35;;;;;;;36.83;27.23;;;1.00;90.00;;;;;;4979487;28;20495;-93
2023/12/08 08:16:01;;;;;;;39.10;28.53;;;1.00;90.00;;;;;;5003604;28;20184;-92
2023/12/08 08:18:29;;;;;;;39.27;27.03;;;1.00;90.00;;;;;;4988674;28;20201;-92
2023/12/08 08:20:55;;;;;;;36.63;26.33;;;1.00;90.00;;;;;;4987971;28;20178;-92
2023/12/08 08:23:20;;;;;;;42.80;28.77;;;1.10;89.90;;;;;;4989595;28;20768;-92
2023/12/08 08:25:46;;;;;;;42.67;29.80;;;1.10;89.80;;;;;;4988067;28;20185;-93
2023/12/08 08:28:12;;;;;;;43.20;28.60;;;1.10;89.70;;;;;;4994757;28;20198;-95
2023/12/08 08:30:40;;;;;;;45.77;40.87;;;1.20;89.60;;;;;;4995521;28;20174;-93
2023/12/08 08:33:06;;;;;;;48.33;43.10;;;1.20;89.50;;;;;;4996591;28;20211;-94
2023/12/08 08:35:33;;;;;;;48.57;40.40;;;1.20;89.60;;;;;;4993774;28;20186;-95
2023/12/08 08:37:58;;;;;;;45.33;40.43;;;1.20;89.50;;;;;;4996408;28;20193;-93
2023/12/08 08:40:24;;;;;;;47.37;39.77;;;1.20;89.50;;;;;;4996083;28;20182;-92
2023/12/08 08:42:50;;;;;;;47.33;41.73;;;1.20;89.50;;;;;;4995847;28;20228;-92
2023/12/08 08:45:16;;;;;;;46.40;39.07;;;1.20;89.50;;;;;;4994887;28;20188;-93
2023/12/08 08:47:45;;;;;;;49.63;41.20;;;1.20;89.40;;;;;;4993447;28;20186;-93
2023/12/08 08:50:11;;;;;;;47.17;42.23;;;1.30;89.30;;;;;;4994430;28;20301;-92
2023/12/08 08:52:37;;;;;;;53.87;44.03;;;1.30;89.20;;;;;;4995184;28;20182;-95
2023/12/08 08:55:04;;;;;;;38.40;28.57;;;1.30;89.20;;;;;;4992046;28;20185;-93
2023/12/08 08:57:30;;;;;;;40.53;26.97;;;1.30;89.10;;;;;;4993550;28;20193;-96
2023/12/08 08:59:58;;;;;;;43.40;38.50;;;1.30;89.10;;;;;;4993831;28;20207;-94
2023/12/08 09:02:32;;;;;;;46.23;40.57;;;1.30;88.90;;;;;;5116561;23;20232;-95
2023/12/08 09:04:57;;;;;;;41.50;29.97;;;1.30;89.00;;;;;;4981898;28;20208;-96
2023/12/08 09:07:23;;;;;;;39.73;29.00;;;1.30;89.00;;;;;;4978822;28;20202;-94
2023/12/08 09:09:50;;;;;;;35.17;26.10;;;1.40;89.00;;;;;;4976844;28;20216;-94
2023/12/08 09:12:17;;;;;;;45.93;40.93;;;1.40;89.00;;;;;;4977401;28;20207;-93
2023/12/08 09:14:43;;;;;;;49.30;44.17;;;1.40;88.90;;;;;;4978862;28;20173;-92
2023/12/08 09:17:09;;;;;;;44.37;35.33;;;1.40;88.80;;;;;;4979598;28;20183;-95
2023/12/08 09:19:35;;;;;;;40.93;29.50;;;1.40;88.80;;;;;;4981088;28;20195;-93
2023/12/08 09:22:01;;;;;;;40.97;29.00;;;1.50;88.90;;;;;;4981615;28;20171;-94
2023/12/08 09:24:26;;;;;;;47.93;43.03;;;1.40;88.90;;;;;;4980950;28;20234;-94
2023/12/08 09:26:52;;;;;;;49.53;44.27;;;1.40;88.80;;;;;;4980578;28;20171;-93
2023/12/08 09:29:18;;;;;;;45.63;39.83;;;1.50;88.90;;;;;;4982104;28;20206;-93
2023/12/08 09:31:44;;;;;;;39.00;28.70;;;1.50;88.80;;;;;;4980481;28;20167;-93
2023/12/08 09:34:10;;;;;;;38.70;29.40;;;1.40;88.80;;;;;;4979850;28;20183;-94
2023/12/08 09:36:36;;;;;;;41.47;36.93;;;1.50;88.90;;;;;;4980603;28;20275;-93
2023/12/08 09:39:04;;;;;;;48.80;41.20;;;1.50;88.80;;;;;;4999599;28;20210;-93
2023/12/08 09:41:30;;;;;;;45.17;36.80;;;1.50;88.90;;;;;;4985011;28;20171;-94
2023/12/08 09:44:13;;;;;;;39.90;28.60;;;1.50;89.00;;;;;;4985152;28;20210;-94
2023/12/08 09:46:44;;;;;;;38.57;29.53;;;1.40;89.00;;;;;;4985004;28;20238;-94
2023/12/08 09:49:19;;;;;;;46.80;38.53;;;1.40;89.00;;;;;;4984972;28;20190;-93
2023/12/08 09:51:45;;;;;;;47.83;40.33;;;1.40;89.10;;;;;;4984907;28;20147;-93
2023/12/08 09:54:11;;;;;;;37.20;30.47;;;1.40;89.20;;;;;;4985054;28;20171;-95
2023/12/08 09:56:37;;;;;;;42.50;30.03;;;1.40;89.30;;;;;;4985283;28;20182;-93
2023/12/08 09:59:04;;;;;;;38.87;27.53;;;1.40;89.20;;;;;;4984998;28;20186;-95
2023/12/08 10:01:30;;;;;;;37.87;31.93;;;1.40;89.30;;;;;;4984847;28;20237;-94
2023/12/08 10:04:16;;;;;;;44.00;37.47;;;1.40;89.30;;;;;;4984722;28;20194;-92
2023/12/08 10:06:43;;;;;;;37.73;28.70;;;1.40;89.20;;;;;;5001170;28;20157;-95
2023/12/08 10:09:11;;;;;;;40.20;29.27;;;1.50;89.30;;;;;;4985110;28;20208;-95
2023/12/08 10:11:38;;;;;;;42.13;28.83;;;1.50;89.30;;;;;;4984590;28;20175;-94
2023/12/08 10:14:05;;;;;;;41.47;35.27;;;1.50;89.30;;;;;;4984763;28;20186;-95
2023/12/08 10:16:30;;;;;;;43.00;37.63;;;1.50;89.20;;;;;;4984965;28;20159;-95
2023/12/08 10:19:05;;;;;;;41.40;30.90;;;1.50;89.20;;;;;;4984916;28;20270;-95
2023/12/08 10:21:30;;;;;;;40.13;30.90;;;1.50;89.20;;;;;;4984985;28;20163;-95
2023/12/08 10:24:02;;;;;;;44.37;33.67;;;1.50;89.30;;;;;;4986709;28;20218;-94
2023/12/08 10:26:29;;;;;;;42.97;38.33;;;1.50;89.20;;;;;;5002903;28;20220;-92
2023/12/08 10:28:56;;;;;;;45.70;39.33;;;1.60;89.00;;;;;;4994554;28;20200;-92
2023/12/08 10:31:22;;;;;;;36.43;28.67;;;1.60;88.90;;;;;;5003610;28;20171;-94
2023/12/08 10:33:50;;;;;;;41.27;32.30;;;1.60;88.90;;;;;;5003473;28;20158;-95
2023/12/08 10:36:16;;;;;;;41.17;30.13;;;1.60;88.90;;;;;;5004093;28;20174;-95
2023/12/08 10:38:42;;;;;;;41.73;31.67;;;1.60;88.80;;;;;;5004154;28;20234;-95
2023/12/08 10:41:11;;;;;;;39.93;30.97;;;1.60;88.90;;;;;;5004027;28;20189;-94
2023/12/08 10:43:39;;;;;;;40.23;31.23;;;1.60;88.90;;;;;;4992360;28;20236;-90
2023/12/08 10:46:06;;;;;;;41.43;31.80;;;1.60;89.00;;;;;;4986106;28;20184;-90
2023/12/08 10:48:32;;;;;;;41.03;31.27;;;1.60;88.90;;;;;;4988594;28;20196;-91
2023/12/08 10:50:59;;;;;;;43.20;31.90;;;1.60;89.00;;;;;;5002613;28;20185;-93
2023/12/08 10:53:26;;;;;;;42.47;31.40;;;1.60;89.10;;;;;;5003473;28;20185;-93
2023/12/08 10:56:05;;;;;;;47.07;41.30;;;1.60;89.00;;;;;;5003757;28;20171;-95
2023/12/08 10:58:34;;;;;;;51.57;42.13;;;1.60;89.10;;;;;;5003637;28;20205;-95
2023/12/08 11:01:12;;;;;;;52.70;41.70;;;1.50;89.30;;;;;;5003583;28;20151;-96
2023/12/08 11:03:39;;;;;;;50.57;40.27;;;1.50;89.40;;;;;;5003461;28;20278;-95
2023/12/08 11:06:10;;;;;;;47.67;42.57;;;1.50;89.40;;;;;;5003254;28;20185;-95
2023/12/08 11:08:40;;;;;;;48.30;43.07;;;1.60;89.40;;;;;;5003026;28;20196;-94
2023/12/08 11:11:08;;;;;;;48.90;41.10;;;1.60;89.20;;;;;;5003446;28;20151;-93
2023/12/08 11:13:40;;;;;;;46.63;41.57;;;1.60;89.30;;;;;;5003281;28;20193;-94
2023/12/08 11:16:18;;;;;;;46.70;41.10;;;1.60;89.40;;;;;;5003110;28;20155;-94
2023/12/08 11:18:46;;;;;;;47.17;40.57;;;1.50;89.40;;;;;;5002790;28;20263;-92
2023/12/08 11:21:12;;;;;;;46.70;40.63;;;1.50;89.60;;;;;;5003312;28;20183;-91
2023/12/08 11:23:40;;;;;;;47.90;39.50;;;1.50;89.80;;;;;;5003099;28;20194;-92
2023/12/08 11:26:31;;;;;;;49.90;40.17;;;1.50;90.00;;;;;;5003193;28;20174;-93
2023/12/08 11:29:07;;;;;;;45.17;32.23;;;1.40;90.30;;;;;;5003108;28;20174;-94
2023/12/08 11:31:46;;;;;;;47.03;32.67;;;1.40;90.50;;;;;;5003001;28;20158;-93
2023/12/08 11:34:17;;;;;;;44.73;37.47;;;1.30;90.80;;;;;;5002911;28;20150;-94
2023/12/08 11:36:46;;;;;;;52.47;38.10;;;1.30;91.00;;;;;;4997198;28;20178;-91
2023/12/08 11:39:34;;;;;;;51.37;38.50;;;1.30;91.30;;;;;;4978080;28;20213;-90
2023/12/08 11:42:03;;;;;;;45.97;31.63;;;1.20;91.40;;;;;;4978026;28;20201;-91
2023/12/08 11:44:32;;;;;;;55.27;33.43;;;1.20;91.70;;;;;;4990316;28;20239;-91
2023/12/08 11:47:00;;;;;;;51.87;37.07;;;1.20;91.80;;;;;;4997659;28;20200;-92
2023/12/08 11:49:25;;;;;;;48.20;37.03;;;1.20;91.90;;;;;;4997321;28;20272;-91
2023/12/08 11:52:20;;;;;;;51.00;37.13;;;1.20;92.00;;;;;;5007135;28;20174;-93
2023/12/08 11:55:07;;;;;;;52.47;32.57;;;1.20;92.20;;;;;;4994112;28;20173;-93
2023/12/08 11:57:36;;;;;;;50.20;32.83;;;1.20;92.30;;;;;;4990127;28;20184;-93
2023/12/08 12:00:04;;;;;;;48.87;32.60;;;1.30;92.30;;;;;;4991632;28;20213;-93
2023/12/08 12:02:30;;;;;;;51.50;34.23;;;1.20;92.30;;;;;;4999239;28;20260;-93
2023/12/08 12:04:56;;;;;;;49.17;32.33;;;1.20;92.40;;;;;;5002442;28;20191;-94
2023/12/08 12:07:23;;;;;;;52.27;33.30;;;1.20;92.40;;;;;;5002565;28;20153;-94
2023/12/08 12:09:53;;;;;;;48.30;32.23;;;1.30;92.50;;;;;;5002387;28;20201;-94
2023/12/08 12:12:24;;;;;;;52.67;34.50;;;1.20;92.40;;;;;;5002531;28;20169;-95
2023/12/08 12:14:54;;;;;;;50.27;32.47;;;1.20;92.50;;;;;;5002225;28;20158;-94
2023/12/08 12:17:20;;;;;;;51.43;39.03;;;1.30;92.60;;;;;;5002259;28;20213;-95
2023/12/08 12:19:47;;;;;;;49.70;38.20;;;1.20;92.60;;;;;;5000314;28;20194;-93
2023/12/08 12:22:14;;;;;;;52.10;39.40;;;1.30;92.60;;;;;;4992326;28;20182;-92
2023/12/08 12:24:40;;;;;;;54.93;40.40;;;1.20;92.60;;;;;;4989056;28;20224;-93
2023/12/08 12:27:06;;;;;;;49.43;38.13;;;1.30;92.70;;;;;;5013255;28;20190;-92
2023/12/08 12:29:33;;;;;;;52.93;37.90;;;1.20;92.70;;;;;;4992299;28;20231;-91
2023/12/08 12:31:59;;;;;;;49.73;35.63;;;1.30;92.80;;;;;;5017129;28;20178;-92
2023/12/08 12:34:24;;;;;;;47.77;32.33;;;1.30;92.80;;;;;;4998823;28;20197;-91
2023/12/08 12:36:50;;;;;;;49.00;33.63;;;1.20;92.70;;;;;;5000662;28;20176;-95
2023/12/08 12:39:17;;;;;;;47.03;34.20;;;1.30;92.80;;;;;;5002000;28;20214;-96
2023/12/08 12:41:43;;;;;;;47.23;30.47;;;1.30;92.70;;;;;;5002086;28;20196;-96
2023/12/08 12:44:08;;;;;;;43.57;30.97;;;1.30;92.70;;;;;;4996589;28;20308;-93
2023/12/08 12:46:34;;;;;;;45.53;30.70;;;1.20;92.70;;;;;;5002101;28;20168;-94
2023/12/08 12:49:02;;;;;;;42.23;35.27;;;1.30;92.70;;;;;;5001972;28;20170;-96
2023/12/08 12:51:36;;;;;;;46.10;36.73;;;1.30;92.70;;;;;;5001668;28;20170;-94